createdAt,value
2022-12-10T00:08:02.138Z,97030
2022-12-10T00:20:02.082Z,97040
2022-12-10T00:32:02.160Z,97040
2022-12-10T00:44:02.203Z,97050
2022-12-10T00:56:02.209Z,97040
2022-12-10T01:08:02.507Z,97050
2022-12-10T01:20:02.181Z,97050
2022-12-10T01:32:02.227Z,97070
2022-12-10T01:44:02.087Z,97070
2022-12-10T01:56:02.200Z,97080
2022-12-10T02:08:02.218Z,97100
2022-12-10T02:20:02.128Z,97100
2022-12-10T02:32:02.281Z,97100
2022-12-10T02:44:02.184Z,97080
2022-12-10T02:56:02.197Z,97080
2022-12-10T03:08:02.299Z,97100
2022-12-10T03:20:02.103Z,97080
2022-12-10T03:32:02.084Z,97090
2022-12-10T03:44:02.098Z,97090
2022-12-10T03:56:02.082Z,97080
2022-12-10T04:08:02.207Z,97090
2022-12-10T04:20:02.177Z,97100
2022-12-10T04:32:02.149Z,97090
2022-12-10T04:44:02.192Z,97100
2022-12-10T04:56:02.179Z,97110
2022-12-10T05:08:02.120Z,97110
2022-12-10T05:20:02.186Z,97110
2022-12-10T05:32:02.073Z,97110
2022-12-10T05:44:02.185Z,97120
2022-12-10T05:56:02.185Z,97130
2022-12-10T06:08:02.196Z,97140
2022-12-10T06:20:02.196Z,97130
2022-12-10T06:32:02.080Z,97140
2022-12-10T06:44:02.179Z,97150
2022-12-10T06:56:02.191Z,97170
2022-12-10T07:08:02.250Z,97180
2022-12-10T07:20:02.189Z,97190
2022-12-10T07:32:02.189Z,97200
2022-12-10T07:44:02.172Z,97200
2022-12-10T07:56:02.194Z,97200
2022-12-10T08:08:05.263Z,97210
2022-12-10T08:20:02.188Z,97230
2022-12-10T08:32:02.247Z,97230
2022-12-10T08:44:02.197Z,97240
2022-12-10T08:56:02.086Z,97260
2022-12-10T09:08:02.232Z,97250
2022-12-10T09:20:02.094Z,97280
2022-12-10T09:32:02.141Z,97280
2022-12-10T09:44:02.084Z,97290
2022-12-10T09:56:02.090Z,97290
2022-12-10T10:08:02.158Z,97330
2022-12-10T10:20:02.193Z,97300
2022-12-10T10:32:02.181Z,97330
2022-12-10T10:44:02.216Z,97350
2022-12-10T10:56:02.167Z,97350
2022-12-10T11:08:02.117Z,97360
2022-12-10T11:20:02.174Z,97360
2022-12-10T11:32:02.092Z,97360
2022-12-10T11:44:02.186Z,97370
2022-12-10T11:56:02.169Z,97360
2022-12-10T12:08:02.396Z,97360
2022-12-10T12:20:02.215Z,97370
2022-12-10T12:32:02.139Z,97360
2022-12-10T12:44:02.092Z,97370
2022-12-10T12:56:02.086Z,97380
2022-12-10T13:08:02.255Z,97380
2022-12-10T13:20:02.188Z,97390
2022-12-10T13:32:02.172Z,97390
2022-12-10T13:44:02.182Z,97390
2022-12-10T13:56:02.083Z,97390
2022-12-10T14:08:02.251Z,97410
2022-12-10T14:20:02.198Z,97410
2022-12-10T14:32:02.136Z,97430
2022-12-10T14:44:02.084Z,97430
2022-12-10T14:56:02.085Z,97430
2022-12-10T15:08:02.259Z,97430
2022-12-10T15:20:02.092Z,97430
2022-12-10T15:32:02.256Z,97420
2022-12-10T15:44:02.204Z,97430
2022-12-10T15:56:02.394Z,97430
2022-12-10T16:08:02.195Z,97460
2022-12-10T16:20:02.120Z,97450
2022-12-10T16:32:02.141Z,97450
2022-12-10T16:44:02.193Z,97450
2022-12-10T16:56:02.182Z,97440
2022-12-10T17:08:02.223Z,97440
2022-12-10T17:20:02.108Z,97460
2022-12-10T17:32:02.252Z,97450
2022-12-10T17:44:02.195Z,97450
2022-12-10T17:56:02.198Z,97460
2022-12-10T18:08:02.262Z,97460
2022-12-10T18:20:02.088Z,97470
2022-12-10T18:32:02.167Z,97480
2022-12-10T18:44:02.192Z,97480
2022-12-10T18:56:02.085Z,97490
2022-12-10T19:08:02.287Z,97490
2022-12-10T19:20:02.199Z,97490
2022-12-10T19:32:02.180Z,97470
2022-12-10T19:44:02.178Z,97480
2022-12-10T19:56:02.185Z,97470
2022-12-10T20:08:02.116Z,97460
2022-12-10T20:20:02.204Z,97450
2022-12-10T20:32:02.163Z,97460
2022-12-10T20:44:02.190Z,97490
2022-12-10T20:56:02.192Z,97480
2022-12-10T21:08:02.302Z,97480
2022-12-10T21:20:02.198Z,97470
2022-12-10T21:32:02.189Z,97470
2022-12-10T21:44:02.259Z,97470
2022-12-10T21:56:02.202Z,97450
2022-12-10T22:08:02.199Z,97450
2022-12-10T22:20:02.195Z,97460
2022-12-10T22:32:02.193Z,97470
2022-12-10T22:44:02.201Z,97450
2022-12-10T22:56:02.165Z,97450
2022-12-10T23:08:02.126Z,97450
2022-12-10T23:20:02.099Z,97450
2022-12-10T23:32:02.221Z,97440
2022-12-10T23:44:02.175Z,97450
2022-12-10T23:56:02.190Z,97470
